sensor_id;sensor_type;location;lat;lon;timestamp;P1;durP1;ratioP1;P2;durP2;ratioP2
13443;SDS011;6794;59.218;18.218;2023-08-31T00:01:51;4.13;;;2.83;;
13443;SDS011;6794;59.218;18.218;2023-08-31T00:04:18;3.23;;;2.90;;
13443;SDS011;6794;59.218;18.218;2023-08-31T00:06:44;3.07;;;2.77;;
13443;SDS011;6794;59.218;18.218;2023-08-31T00:09:11;3.37;;;2.60;;
13443;SDS011;6794;59.218;18.218;2023-08-31T00:11:37;4.03;;;3.00;;
13443;SDS011;6794;59.218;18.218;2023-08-31T00:14:04;3.53;;;2.53;;
13443;SDS011;6794;59.218;18.218;2023-08-31T00:16:30;2.87;;;2.67;;
13443;SDS011;6794;59.218;18.218;2023-08-31T00:18:56;3.27;;;2.43;;
13443;SDS011;6794;59.218;18.218;2023-08-31T00:21:22;3.20;;;2.80;;
13443;SDS011;6794;59.218;18.218;2023-08-31T00:23:48;3.13;;;2.83;;
13443;SDS011;6794;59.218;18.218;2023-08-31T00:26:15;3.10;;;2.53;;
13443;SDS011;6794;59.218;18.218;2023-08-31T00:28:41;4.10;;;3.20;;
13443;SDS011;6794;59.218;18.218;2023-08-31T00:31:09;5.07;;;3.00;;
13443;SDS011;6794;59.218;18.218;2023-08-31T00:33:35;3.27;;;2.40;;
13443;SDS011;6794;59.218;18.218;2023-08-31T00:36:01;3.83;;;2.50;;
13443;SDS011;6794;59.218;18.218;2023-08-31T00:38:28;2.63;;;2.33;;
13443;SDS011;6794;59.218;18.218;2023-08-31T00:40:54;3.33;;;2.60;;
13443;SDS011;6794;59.218;18.218;2023-08-31T00:43:20;3.60;;;2.70;;
13443;SDS011;6794;59.218;18.218;2023-08-31T00:45:47;2.57;;;2.37;;
13443;SDS011;6794;59.218;18.218;2023-08-31T00:48:14;2.77;;;2.47;;
13443;SDS011;6794;59.218;18.218;2023-08-31T00:50:42;4.13;;;2.80;;
13443;SDS011;6794;59.218;18.218;2023-08-31T00:53:08;5.07;;;2.77;;
13443;SDS011;6794;59.218;18.218;2023-08-31T00:55:34;3.37;;;2.73;;
13443;SDS011;6794;59.218;18.218;2023-08-31T00:58:00;3.10;;;2.80;;
13443;SDS011;6794;59.218;18.218;2023-08-31T01:08:28;4.20;;;2.67;;
13443;SDS011;6794;59.218;18.218;2023-08-31T01:11:00;4.15;;;3.40;;
13443;SDS011;6794;59.218;18.218;2023-08-31T01:13:29;5.37;;;2.57;;
13443;SDS011;6794;59.218;18.218;2023-08-31T01:15:59;2.93;;;2.73;;
13443;SDS011;6794;59.218;18.218;2023-08-31T01:18:27;3.40;;;2.33;;
13443;SDS011;6794;59.218;18.218;2023-08-31T01:26:18;3.00;;;2.53;;
13443;SDS011;6794;59.218;18.218;2023-08-31T01:28:44;3.23;;;2.70;;
13443;SDS011;6794;59.218;18.218;2023-08-31T01:31:10;5.30;;;3.07;;
13443;SDS011;6794;59.218;18.218;2023-08-31T01:33:36;5.33;;;3.03;;
13443;SDS011;6794;59.218;18.218;2023-08-31T01:36:03;3.47;;;2.50;;
13443;SDS011;6794;59.218;18.218;2023-08-31T01:38:30;3.10;;;2.67;;
13443;SDS011;6794;59.218;18.218;2023-08-31T01:41:08;4.43;;;2.87;;
13443;SDS011;6794;59.218;18.218;2023-08-31T01:43:36;3.20;;;2.90;;
13443;SDS011;6794;59.218;18.218;2023-08-31T01:46:04;4.37;;;3.27;;
13443;SDS011;6794;59.218;18.218;2023-08-31T01:48:30;6.37;;;3.20;;
13443;SDS011;6794;59.218;18.218;2023-08-31T01:50:57;4.47;;;3.57;;
13443;SDS011;6794;59.218;18.218;2023-08-31T01:53:26;3.90;;;3.60;;
13443;SDS011;6794;59.218;18.218;2023-08-31T01:55:52;3.83;;;3.20;;
13443;SDS011;6794;59.218;18.218;2023-08-31T01:58:18;3.20;;;2.90;;
13443;SDS011;6794;59.218;18.218;2023-08-31T02:00:44;2.80;;;2.40;;
13443;SDS011;6794;59.218;18.218;2023-08-31T02:03:10;3.10;;;2.80;;
13443;SDS011;6794;59.218;18.218;2023-08-31T02:05:36;3.30;;;3.00;;
13443;SDS011;6794;59.218;18.218;2023-08-31T02:08:02;3.30;;;2.80;;
13443;SDS011;6794;59.218;18.218;2023-08-31T02:10:28;2.83;;;2.50;;
13443;SDS011;6794;59.218;18.218;2023-08-31T02:12:55;4.53;;;3.20;;
13443;SDS011;6794;59.218;18.218;2023-08-31T02:15:20;3.23;;;2.60;;
13443;SDS011;6794;59.218;18.218;2023-08-31T02:17:47;3.37;;;2.63;;
13443;SDS011;6794;59.218;18.218;2023-08-31T02:20:13;5.13;;;2.50;;
13443;SDS011;6794;59.218;18.218;2023-08-31T02:22:39;3.93;;;2.70;;
13443;SDS011;6794;59.218;18.218;2023-08-31T02:25:05;3.17;;;2.80;;
13443;SDS011;6794;59.218;18.218;2023-08-31T02:27:32;3.23;;;2.93;;
13443;SDS011;6794;59.218;18.218;2023-08-31T02:29:58;3.70;;;2.73;;
13443;SDS011;6794;59.218;18.218;2023-08-31T02:32:24;4.20;;;2.60;;
13443;SDS011;6794;59.218;18.218;2023-08-31T02:34:50;3.00;;;2.80;;
13443;SDS011;6794;59.218;18.218;2023-08-31T02:37:16;4.07;;;3.00;;
13443;SDS011;6794;59.218;18.218;2023-08-31T02:39:42;3.13;;;2.60;;
13443;SDS011;6794;59.218;18.218;2023-08-31T02:42:08;2.57;;;2.10;;
13443;SDS011;6794;59.218;18.218;2023-08-31T02:44:34;2.27;;;2.07;;
13443;SDS011;6794;59.218;18.218;2023-08-31T02:47:00;4.43;;;2.47;;
13443;SDS011;6794;59.218;18.218;2023-08-31T02:49:26;3.77;;;2.20;;
13443;SDS011;6794;59.218;18.218;2023-08-31T02:51:52;3.63;;;2.50;;
13443;SDS011;6794;59.218;18.218;2023-08-31T02:54:18;4.63;;;2.30;;
13443;SDS011;6794;59.218;18.218;2023-08-31T02:56:44;2.33;;;2.13;;
13443;SDS011;6794;59.218;18.218;2023-08-31T02:59:11;2.17;;;1.97;;
13443;SDS011;6794;59.218;18.218;2023-08-31T03:01:37;3.10;;;2.53;;
13443;SDS011;6794;59.218;18.218;2023-08-31T03:04:04;3.00;;;2.40;;
13443;SDS011;6794;59.218;18.218;2023-08-31T03:06:31;3.10;;;2.20;;
13443;SDS011;6794;59.218;18.218;2023-08-31T03:08:57;2.90;;;2.30;;
13443;SDS011;6794;59.218;18.218;2023-08-31T03:11:23;3.00;;;2.60;;
13443;SDS011;6794;59.218;18.218;2023-08-31T03:13:49;2.40;;;2.20;;
13443;SDS011;6794;59.218;18.218;2023-08-31T03:16:15;5.27;;;2.40;;
13443;SDS011;6794;59.218;18.218;2023-08-31T03:18:41;3.70;;;2.90;;
13443;SDS011;6794;59.218;18.218;2023-08-31T03:21:07;2.90;;;2.20;;
13443;SDS011;6794;59.218;18.218;2023-08-31T03:23:34;3.50;;;2.60;;
13443;SDS011;6794;59.218;18.218;2023-08-31T03:26:06;3.13;;;2.30;;
13443;SDS011;6794;59.218;18.218;2023-08-31T03:28:32;2.57;;;2.23;;
13443;SDS011;6794;59.218;18.218;2023-08-31T03:30:58;3.27;;;2.80;;
13443;SDS011;6794;59.218;18.218;2023-08-31T03:33:24;4.23;;;3.70;;
13443;SDS011;6794;59.218;18.218;2023-08-31T03:35:50;5.07;;;2.53;;
13443;SDS011;6794;59.218;18.218;2023-08-31T03:38:16;3.17;;;2.87;;
13443;SDS011;6794;59.218;18.218;2023-08-31T03:40:42;5.37;;;3.20;;
13443;SDS011;6794;59.218;18.218;2023-08-31T03:43:09;3.20;;;2.90;;
13443;SDS011;6794;59.218;18.218;2023-08-31T03:45:35;3.77;;;2.60;;
13443;SDS011;6794;59.218;18.218;2023-08-31T03:48:01;4.77;;;3.00;;
13443;SDS011;6794;59.218;18.218;2023-08-31T03:50:28;3.20;;;2.90;;
13443;SDS011;6794;59.218;18.218;2023-08-31T03:52:54;2.90;;;2.57;;
13443;SDS011;6794;59.218;18.218;2023-08-31T03:55:20;4.17;;;2.33;;
13443;SDS011;6794;59.218;18.218;2023-08-31T03:57:46;2.80;;;2.50;;
13443;SDS011;6794;59.218;18.218;2023-08-31T04:00:12;5.90;;;2.17;;
13443;SDS011;6794;59.218;18.218;2023-08-31T04:02:38;3.08;;;2.88;;
13443;SDS011;6794;59.218;18.218;2023-08-31T04:05:04;2.83;;;2.63;;
13443;SDS011;6794;59.218;18.218;2023-08-31T04:07:31;3.43;;;2.50;;
13443;SDS011;6794;59.218;18.218;2023-08-31T04:09:57;3.43;;;2.37;;
13443;SDS011;6794;59.218;18.218;2023-08-31T04:12:24;3.10;;;2.33;;
13443;SDS011;6794;59.218;18.218;2023-08-31T04:14:50;3.00;;;2.30;;
13443;SDS011;6794;59.218;18.218;2023-08-31T04:17:16;2.53;;;2.23;;
13443;SDS011;6794;59.218;18.218;2023-08-31T04:19:41;2.57;;;2.37;;
13443;SDS011;6794;59.218;18.218;2023-08-31T04:22:07;6.43;;;2.60;;
13443;SDS011;6794;59.218;18.218;2023-08-31T04:24:33;5.43;;;2.60;;
13443;SDS011;6794;59.218;18.218;2023-08-31T04:26:59;2.70;;;2.30;;
13443;SDS011;6794;59.218;18.218;2023-08-31T04:29:25;2.80;;;2.40;;
13443;SDS011;6794;59.218;18.218;2023-08-31T04:31:51;7.83;;;2.70;;
13443;SDS011;6794;59.218;18.218;2023-08-31T04:34:18;3.83;;;2.60;;
13443;SDS011;6794;59.218;18.218;2023-08-31T04:36:44;3.00;;;2.70;;
13443;SDS011;6794;59.218;18.218;2023-08-31T04:39:10;2.63;;;2.40;;
13443;SDS011;6794;59.218;18.218;2023-08-31T04:41:37;2.93;;;2.73;;
13443;SDS011;6794;59.218;18.218;2023-08-31T04:44:03;3.23;;;2.43;;
13443;SDS011;6794;59.218;18.218;2023-08-31T04:46:29;5.87;;;2.47;;
13443;SDS011;6794;59.218;18.218;2023-08-31T04:48:55;3.27;;;2.67;;
13443;SDS011;6794;59.218;18.218;2023-08-31T04:54:16;2.80;;;2.60;;
13443;SDS011;6794;59.218;18.218;2023-08-31T04:56:42;3.07;;;2.23;;
13443;SDS011;6794;59.218;18.218;2023-08-31T04:59:08;3.10;;;2.80;;
13443;SDS011;6794;59.218;18.218;2023-08-31T05:01:34;3.20;;;2.47;;
13443;SDS011;6794;59.218;18.218;2023-08-31T05:04:00;3.17;;;2.67;;
13443;SDS011;6794;59.218;18.218;2023-08-31T05:06:27;2.77;;;2.57;;
13443;SDS011;6794;59.218;18.218;2023-08-31T05:08:53;6.43;;;2.60;;
13443;SDS011;6794;59.218;18.218;2023-08-31T05:11:19;2.80;;;2.60;;
13443;SDS011;6794;59.218;18.218;2023-08-31T05:13:46;2.73;;;2.50;;
13443;SDS011;6794;59.218;18.218;2023-08-31T05:16:12;3.40;;;3.10;;
13443;SDS011;6794;59.218;18.218;2023-08-31T05:18:38;5.63;;;2.90;;
13443;SDS011;6794;59.218;18.218;2023-08-31T05:21:07;4.73;;;2.67;;
13443;SDS011;6794;59.218;18.218;2023-08-31T05:23:33;3.73;;;3.00;;
13443;SDS011;6794;59.218;18.218;2023-08-31T05:25:59;3.27;;;2.97;;
13443;SDS011;6794;59.218;18.218;2023-08-31T05:28:26;5.93;;;3.10;;
13443;SDS011;6794;59.218;18.218;2023-08-31T05:30:53;3.30;;;2.97;;
13443;SDS011;6794;59.218;18.218;2023-08-31T05:33:19;5.30;;;3.00;;
13443;SDS011;6794;59.218;18.218;2023-08-31T05:35:47;3.57;;;2.77;;
13443;SDS011;6794;59.218;18.218;2023-08-31T05:38:13;3.47;;;2.70;;
13443;SDS011;6794;59.218;18.218;2023-08-31T05:40:39;3.33;;;2.50;;
13443;SDS011;6794;59.218;18.218;2023-08-31T05:43:10;2.70;;;2.50;;
13443;SDS011;6794;59.218;18.218;2023-08-31T05:45:36;2.93;;;2.70;;
13443;SDS011;6794;59.218;18.218;2023-08-31T05:48:02;3.00;;;2.70;;
13443;SDS011;6794;59.218;18.218;2023-08-31T05:50:29;6.73;;;2.80;;
13443;SDS011;6794;59.218;18.218;2023-08-31T05:52:55;3.87;;;2.83;;
13443;SDS011;6794;59.218;18.218;2023-08-31T05:55:22;2.80;;;2.53;;
13443;SDS011;6794;59.218;18.218;2023-08-31T05:57:48;5.53;;;3.00;;
13443;SDS011;6794;59.218;18.218;2023-08-31T06:00:14;2.60;;;2.40;;
13443;SDS011;6794;59.218;18.218;2023-08-31T06:02:41;3.43;;;2.60;;
13443;SDS011;6794;59.218;18.218;2023-08-31T06:05:09;2.83;;;2.33;;
13443;SDS011;6794;59.218;18.218;2023-08-31T06:07:37;2.33;;;2.13;;
13443;SDS011;6794;59.218;18.218;2023-08-31T06:10:03;2.67;;;2.13;;
13443;SDS011;6794;59.218;18.218;2023-08-31T06:12:29;2.80;;;2.50;;
13443;SDS011;6794;59.218;18.218;2023-08-31T06:14:56;2.27;;;2.07;;
13443;SDS011;6794;59.218;18.218;2023-08-31T06:17:22;2.87;;;1.83;;
13443;SDS011;6794;59.218;18.218;2023-08-31T06:19:48;2.63;;;2.43;;
13443;SDS011;6794;59.218;18.218;2023-08-31T06:22:14;3.07;;;2.13;;
13443;SDS011;6794;59.218;18.218;2023-08-31T06:24:40;2.50;;;2.03;;
13443;SDS011;6794;59.218;18.218;2023-08-31T06:27:07;2.20;;;2.00;;
13443;SDS011;6794;59.218;18.218;2023-08-31T06:29:33;3.43;;;1.70;;
13443;SDS011;6794;59.218;18.218;2023-08-31T06:31:59;2.17;;;1.87;;
13443;SDS011;6794;59.218;18.218;2023-08-31T06:34:25;4.00;;;2.27;;
13443;SDS011;6794;59.218;18.218;2023-08-31T06:36:51;2.47;;;2.20;;
13443;SDS011;6794;59.218;18.218;2023-08-31T06:39:17;3.10;;;2.00;;
13443;SDS011;6794;59.218;18.218;2023-08-31T06:41:43;2.00;;;1.80;;
13443;SDS011;6794;59.218;18.218;2023-08-31T06:44:09;2.47;;;2.13;;
13443;SDS011;6794;59.218;18.218;2023-08-31T06:46:35;2.33;;;1.90;;
13443;SDS011;6794;59.218;18.218;2023-08-31T06:49:03;1.70;;;1.53;;
13443;SDS011;6794;59.218;18.218;2023-08-31T06:51:30;2.50;;;2.33;;
13443;SDS011;6794;59.218;18.218;2023-08-31T06:53:56;1.95;;;1.75;;
13443;SDS011;6794;59.218;18.218;2023-08-31T06:56:27;2.43;;;2.10;;
13443;SDS011;6794;59.218;18.218;2023-08-31T06:58:53;1.97;;;1.63;;
13443;SDS011;6794;59.218;18.218;2023-08-31T07:01:19;2.47;;;1.30;;
13443;SDS011;6794;59.218;18.218;2023-08-31T07:03:45;1.93;;;1.83;;
13443;SDS011;6794;59.218;18.218;2023-08-31T07:06:11;2.60;;;1.37;;
13443;SDS011;6794;59.218;18.218;2023-08-31T07:08:37;1.83;;;1.50;;
13443;SDS011;6794;59.218;18.218;2023-08-31T07:11:05;2.43;;;1.60;;
13443;SDS011;6794;59.218;18.218;2023-08-31T07:13:31;2.03;;;1.60;;
13443;SDS011;6794;59.218;18.218;2023-08-31T07:15:57;1.90;;;1.67;;
13443;SDS011;6794;59.218;18.218;2023-08-31T07:18:23;1.77;;;1.63;;
13443;SDS011;6794;59.218;18.218;2023-08-31T07:20:49;1.97;;;1.70;;
13443;SDS011;6794;59.218;18.218;2023-08-31T07:23:15;1.63;;;1.40;;
13443;SDS011;6794;59.218;18.218;2023-08-31T07:25:41;2.40;;;2.00;;
13443;SDS011;6794;59.218;18.218;2023-08-31T07:28:07;1.63;;;1.40;;
13443;SDS011;6794;59.218;18.218;2023-08-31T07:30:33;2.00;;;1.60;;
13443;SDS011;6794;59.218;18.218;2023-08-31T07:32:59;1.83;;;1.73;;
13443;SDS011;6794;59.218;18.218;2023-08-31T07:35:28;1.70;;;1.40;;
13443;SDS011;6794;59.218;18.218;2023-08-31T07:37:54;3.27;;;1.50;;
13443;SDS011;6794;59.218;18.218;2023-08-31T07:40:20;1.87;;;1.20;;
13443;SDS011;6794;59.218;18.218;2023-08-31T07:42:46;1.83;;;1.60;;
13443;SDS011;6794;59.218;18.218;2023-08-31T07:45:12;1.90;;;1.67;;
13443;SDS011;6794;59.218;18.218;2023-08-31T07:47:38;1.47;;;1.37;;
13443;SDS011;6794;59.218;18.218;2023-08-31T07:50:04;2.63;;;1.53;;
13443;SDS011;6794;59.218;18.218;2023-08-31T07:52:31;3.03;;;1.57;;
13443;SDS011;6794;59.218;18.218;2023-08-31T07:54:57;1.50;;;1.40;;
13443;SDS011;6794;59.218;18.218;2023-08-31T07:57:23;1.93;;;1.30;;
13443;SDS011;6794;59.218;18.218;2023-08-31T07:59:49;2.43;;;1.73;;
13443;SDS011;6794;59.218;18.218;2023-08-31T08:02:15;2.80;;;1.40;;
13443;SDS011;6794;59.218;18.218;2023-08-31T08:04:41;2.73;;;1.53;;
13443;SDS011;6794;59.218;18.218;2023-08-31T08:07:07;2.73;;;1.63;;
13443;SDS011;6794;59.218;18.218;2023-08-31T08:09:34;1.63;;;1.37;;
13443;SDS011;6794;59.218;18.218;2023-08-31T08:12:00;1.20;;;1.10;;
13443;SDS011;6794;59.218;18.218;2023-08-31T08:14:27;1.70;;;1.40;;
13443;SDS011;6794;59.218;18.218;2023-08-31T08:16:53;2.43;;;1.40;;
13443;SDS011;6794;59.218;18.218;2023-08-31T08:19:23;3.10;;;1.42;;
13443;SDS011;6794;59.218;18.218;2023-08-31T08:21:52;1.93;;;1.60;;
13443;SDS011;6794;59.218;18.218;2023-08-31T08:24:18;3.10;;;1.60;;
13443;SDS011;6794;59.218;18.218;2023-08-31T08:26:44;1.83;;;1.50;;
13443;SDS011;6794;59.218;18.218;2023-08-31T08:29:10;4.83;;;1.53;;
13443;SDS011;6794;59.218;18.218;2023-08-31T08:31:36;1.57;;;1.47;;
13443;SDS011;6794;59.218;18.218;2023-08-31T08:34:02;2.00;;;1.80;;
13443;SDS011;6794;59.218;18.218;2023-08-31T08:36:29;3.00;;;1.60;;
13443;SDS011;6794;59.218;18.218;2023-08-31T08:38:55;2.37;;;1.77;;
13443;SDS011;6794;59.218;18.218;2023-08-31T08:41:22;1.83;;;1.43;;
13443;SDS011;6794;59.218;18.218;2023-08-31T08:43:49;2.00;;;1.60;;
13443;SDS011;6794;59.218;18.218;2023-08-31T08:46:16;1.73;;;1.60;;
13443;SDS011;6794;59.218;18.218;2023-08-31T08:48:42;1.80;;;1.57;;
13443;SDS011;6794;59.218;18.218;2023-08-31T08:51:09;3.47;;;1.70;;
13443;SDS011;6794;59.218;18.218;2023-08-31T08:53:35;2.37;;;1.40;;
13443;SDS011;6794;59.218;18.218;2023-08-31T08:56:03;2.07;;;1.50;;
13443;SDS011;6794;59.218;18.218;2023-08-31T08:58:29;1.50;;;1.40;;
13443;SDS011;6794;59.218;18.218;2023-08-31T09:00:55;1.40;;;1.30;;
13443;SDS011;6794;59.218;18.218;2023-08-31T09:03:23;1.75;;;1.38;;
13443;SDS011;6794;59.218;18.218;2023-08-31T09:05:51;1.47;;;1.30;;
13443;SDS011;6794;59.218;18.218;2023-08-31T09:08:20;1.77;;;1.43;;
13443;SDS011;6794;59.218;18.218;2023-08-31T09:10:51;2.37;;;1.30;;
13443;SDS011;6794;59.218;18.218;2023-08-31T09:13:17;2.17;;;1.37;;
13443;SDS011;6794;59.218;18.218;2023-08-31T09:15:44;2.17;;;1.43;;
13443;SDS011;6794;59.218;18.218;2023-08-31T09:18:29;1.57;;;1.30;;
13443;SDS011;6794;59.218;18.218;2023-08-31T09:20:59;1.80;;;1.40;;
13443;SDS011;6794;59.218;18.218;2023-08-31T09:23:26;3.40;;;1.50;;
13443;SDS011;6794;59.218;18.218;2023-08-31T09:25:53;1.60;;;1.40;;
13443;SDS011;6794;59.218;18.218;2023-08-31T09:28:23;1.43;;;1.30;;
13443;SDS011;6794;59.218;18.218;2023-08-31T09:30:51;1.50;;;1.17;;
13443;SDS011;6794;59.218;18.218;2023-08-31T09:33:18;1.60;;;1.50;;
13443;SDS011;6794;59.218;18.218;2023-08-31T09:35:48;1.47;;;1.20;;
13443;SDS011;6794;59.218;18.218;2023-08-31T09:38:15;1.30;;;1.20;;
13443;SDS011;6794;59.218;18.218;2023-08-31T09:40:41;2.97;;;1.30;;
13443;SDS011;6794;59.218;18.218;2023-08-31T09:43:07;1.83;;;1.20;;
13443;SDS011;6794;59.218;18.218;2023-08-31T09:45:34;2.27;;;1.30;;
13443;SDS011;6794;59.218;18.218;2023-08-31T09:48:02;2.60;;;1.50;;
13443;SDS011;6794;59.218;18.218;2023-08-31T09:50:28;1.57;;;1.30;;
13443;SDS011;6794;59.218;18.218;2023-08-31T09:52:56;3.13;;;1.50;;
13443;SDS011;6794;59.218;18.218;2023-08-31T09:55:24;1.37;;;1.27;;
13443;SDS011;6794;59.218;18.218;2023-08-31T09:57:51;1.43;;;1.33;;
13443;SDS011;6794;59.218;18.218;2023-08-31T10:00:18;2.43;;;1.40;;
13443;SDS011;6794;59.218;18.218;2023-08-31T10:02:44;1.63;;;1.30;;
13443;SDS011;6794;59.218;18.218;2023-08-31T10:05:12;1.77;;;1.37;;
13443;SDS011;6794;59.218;18.218;2023-08-31T10:07:39;1.90;;;1.50;;
13443;SDS011;6794;59.218;18.218;2023-08-31T10:10:05;1.67;;;1.40;;
13443;SDS011;6794;59.218;18.218;2023-08-31T10:12:31;1.83;;;1.40;;
13443;SDS011;6794;59.218;18.218;2023-08-31T10:14:58;2.27;;;1.40;;
13443;SDS011;6794;59.218;18.218;2023-08-31T10:17:25;1.50;;;1.40;;
13443;SDS011;6794;59.218;18.218;2023-08-31T10:19:52;1.50;;;1.40;;
13443;SDS011;6794;59.218;18.218;2023-08-31T10:22:18;1.80;;;1.40;;
13443;SDS011;6794;59.218;18.218;2023-08-31T10:25:00;2.70;;;1.50;;
13443;SDS011;6794;59.218;18.218;2023-08-31T10:27:28;3.17;;;1.63;;
13443;SDS011;6794;59.218;18.218;2023-08-31T10:29:54;2.40;;;1.70;;
13443;SDS011;6794;59.218;18.218;2023-08-31T10:32:20;1.52;;;1.38;;
13443;SDS011;6794;59.218;18.218;2023-08-31T10:35:07;1.30;;;1.20;;
13443;SDS011;6794;59.218;18.218;2023-08-31T10:37:33;1.33;;;1.23;;
13443;SDS011;6794;59.218;18.218;2023-08-31T10:42:45;1.87;;;1.30;;
13443;SDS011;6794;59.218;18.218;2023-08-31T10:45:12;2.27;;;1.40;;
13443;SDS011;6794;59.218;18.218;2023-08-31T10:47:42;2.20;;;1.27;;
13443;SDS011;6794;59.218;18.218;2023-08-31T10:50:21;1.10;;;1.00;;
13443;SDS011;6794;59.218;18.218;2023-08-31T10:52:47;1.30;;;1.20;;
13443;SDS011;6794;59.218;18.218;2023-08-31T10:55:14;1.20;;;1.10;;
13443;SDS011;6794;59.218;18.218;2023-08-31T10:57:40;2.17;;;1.67;;
13443;SDS011;6794;59.218;18.218;2023-08-31T11:00:07;1.33;;;1.20;;
13443;SDS011;6794;59.218;18.218;2023-08-31T11:02:34;1.20;;;1.10;;
13443;SDS011;6794;59.218;18.218;2023-08-31T11:05:01;2.00;;;1.40;;
13443;SDS011;6794;59.218;18.218;2023-08-31T11:07:29;1.97;;;1.30;;
13443;SDS011;6794;59.218;18.218;2023-08-31T11:12:33;1.40;;;1.13;;
13443;SDS011;6794;59.218;18.218;2023-08-31T11:14:59;1.40;;;1.10;;
13443;SDS011;6794;59.218;18.218;2023-08-31T11:17:25;1.98;;;1.58;;
13443;SDS011;6794;59.218;18.218;2023-08-31T11:19:51;1.70;;;1.10;;
13443;SDS011;6794;59.218;18.218;2023-08-31T11:22:18;1.27;;;1.17;;
13443;SDS011;6794;59.218;18.218;2023-08-31T11:24:44;1.30;;;1.20;;
13443;SDS011;6794;59.218;18.218;2023-08-31T11:27:10;1.87;;;1.07;;
13443;SDS011;6794;59.218;18.218;2023-08-31T11:29:36;2.27;;;1.40;;
13443;SDS011;6794;59.218;18.218;2023-08-31T11:32:04;2.10;;;1.10;;
13443;SDS011;6794;59.218;18.218;2023-08-31T11:34:30;3.13;;;1.20;;
13443;SDS011;6794;59.218;18.218;2023-08-31T11:36:56;2.80;;;1.07;;
13443;SDS011;6794;59.218;18.218;2023-08-31T11:39:22;2.00;;;1.17;;
13443;SDS011;6794;59.218;18.218;2023-08-31T11:41:49;3.23;;;1.17;;
13443;SDS011;6794;59.218;18.218;2023-08-31T11:44:15;2.43;;;1.30;;
13443;SDS011;6794;59.218;18.218;2023-08-31T11:46:43;1.83;;;1.30;;
13443;SDS011;6794;59.218;18.218;2023-08-31T11:49:13;1.77;;;1.20;;
13443;SDS011;6794;59.218;18.218;2023-08-31T11:51:39;1.57;;;1.07;;
13443;SDS011;6794;59.218;18.218;2023-08-31T11:54:05;1.20;;;1.10;;
13443;SDS011;6794;59.218;18.218;2023-08-31T11:57:05;2.73;;;1.30;;
13443;SDS011;6794;59.218;18.218;2023-08-31T11:59:24;2.60;;;1.20;;
13443;SDS011;6794;59.218;18.218;2023-08-31T12:01:50;1.40;;;1.17;;
13443;SDS011;6794;59.218;18.218;2023-08-31T12:04:16;1.67;;;1.30;;
13443;SDS011;6794;59.218;18.218;2023-08-31T12:06:45;0.90;;;0.90;;
13443;SDS011;6794;59.218;18.218;2023-08-31T12:09:15;2.73;;;1.10;;
13443;SDS011;6794;59.218;18.218;2023-08-31T12:11:41;2.60;;;1.70;;
13443;SDS011;6794;59.218;18.218;2023-08-31T12:14:20;2.23;;;1.23;;
13443;SDS011;6794;59.218;18.218;2023-08-31T12:16:46;1.77;;;1.20;;
13443;SDS011;6794;59.218;18.218;2023-08-31T12:19:12;2.00;;;1.33;;
13443;SDS011;6794;59.218;18.218;2023-08-31T12:21:39;2.00;;;1.30;;
13443;SDS011;6794;59.218;18.218;2023-08-31T12:24:05;1.23;;;1.10;;
13443;SDS011;6794;59.218;18.218;2023-08-31T12:26:31;1.30;;;1.20;;
13443;SDS011;6794;59.218;18.218;2023-08-31T12:28:57;1.17;;;1.07;;
13443;SDS011;6794;59.218;18.218;2023-08-31T12:31:24;1.20;;;1.10;;
13443;SDS011;6794;59.218;18.218;2023-08-31T12:33:50;1.33;;;0.90;;
13443;SDS011;6794;59.218;18.218;2023-08-31T12:36:16;1.27;;;1.17;;
13443;SDS011;6794;59.218;18.218;2023-08-31T12:38:42;1.20;;;1.10;;
13443;SDS011;6794;59.218;18.218;2023-08-31T12:41:08;1.13;;;1.00;;
13443;SDS011;6794;59.218;18.218;2023-08-31T12:43:34;1.57;;;1.20;;
13443;SDS011;6794;59.218;18.218;2023-08-31T12:46:00;1.73;;;1.20;;
13443;SDS011;6794;59.218;18.218;2023-08-31T12:48:27;1.00;;;1.00;;
13443;SDS011;6794;59.218;18.218;2023-08-31T12:50:53;2.67;;;1.20;;
13443;SDS011;6794;59.218;18.218;2023-08-31T12:53:22;1.97;;;1.10;;
13443;SDS011;6794;59.218;18.218;2023-08-31T12:55:48;1.20;;;1.10;;
13443;SDS011;6794;59.218;18.218;2023-08-31T12:58:15;1.20;;;1.10;;
13443;SDS011;6794;59.218;18.218;2023-08-31T13:00:41;1.13;;;1.00;;
13443;SDS011;6794;59.218;18.218;2023-08-31T13:03:08;1.53;;;1.33;;
13443;SDS011;6794;59.218;18.218;2023-08-31T13:05:35;1.20;;;1.00;;
13443;SDS011;6794;59.218;18.218;2023-08-31T13:08:00;2.10;;;0.90;;
13443;SDS011;6794;59.218;18.218;2023-08-31T13:10:26;1.50;;;1.40;;
13443;SDS011;6794;59.218;18.218;2023-08-31T13:12:52;1.13;;;1.07;;
13443;SDS011;6794;59.218;18.218;2023-08-31T13:15:19;1.83;;;1.10;;
13443;SDS011;6794;59.218;18.218;2023-08-31T13:17:46;3.07;;;1.20;;
13443;SDS011;6794;59.218;18.218;2023-08-31T13:20:12;1.13;;;1.10;;
13443;SDS011;6794;59.218;18.218;2023-08-31T13:22:38;1.50;;;1.20;;
13443;SDS011;6794;59.218;18.218;2023-08-31T13:25:04;1.67;;;1.57;;
13443;SDS011;6794;59.218;18.218;2023-08-31T13:27:30;1.43;;;1.10;;
13443;SDS011;6794;59.218;18.218;2023-08-31T13:29:58;2.37;;;1.63;;
13443;SDS011;6794;59.218;18.218;2023-08-31T13:32:24;1.30;;;1.20;;
13443;SDS011;6794;59.218;18.218;2023-08-31T13:34:50;1.70;;;1.50;;
13443;SDS011;6794;59.218;18.218;2023-08-31T13:37:18;1.37;;;1.20;;
13443;SDS011;6794;59.218;18.218;2023-08-31T13:39:44;1.70;;;1.00;;
13443;SDS011;6794;59.218;18.218;2023-08-31T13:42:11;1.30;;;1.20;;
13443;SDS011;6794;59.218;18.218;2023-08-31T13:44:37;1.87;;;1.37;;
13443;SDS011;6794;59.218;18.218;2023-08-31T13:47:03;2.00;;;1.10;;
13443;SDS011;6794;59.218;18.218;2023-08-31T13:49:30;1.87;;;1.60;;
13443;SDS011;6794;59.218;18.218;2023-08-31T13:51:56;1.20;;;1.10;;
13443;SDS011;6794;59.218;18.218;2023-08-31T13:54:22;1.50;;;1.40;;
13443;SDS011;6794;59.218;18.218;2023-08-31T13:56:48;1.53;;;1.20;;
13443;SDS011;6794;59.218;18.218;2023-08-31T13:59:16;1.30;;;1.20;;
13443;SDS011;6794;59.218;18.218;2023-08-31T14:01:42;2.10;;;1.30;;
13443;SDS011;6794;59.218;18.218;2023-08-31T14:04:08;2.60;;;1.40;;
13443;SDS011;6794;59.218;18.218;2023-08-31T14:06:34;2.53;;;1.30;;
13443;SDS011;6794;59.218;18.218;2023-08-31T14:09:01;2.03;;;1.20;;
13443;SDS011;6794;59.218;18.218;2023-08-31T14:11:27;2.40;;;1.30;;
13443;SDS011;6794;59.218;18.218;2023-08-31T14:14:05;1.47;;;1.17;;
13443;SDS011;6794;59.218;18.218;2023-08-31T14:16:35;1.67;;;1.20;;
13443;SDS011;6794;59.218;18.218;2023-08-31T14:19:02;1.80;;;1.30;;
13443;SDS011;6794;59.218;18.218;2023-08-31T14:21:28;1.77;;;1.10;;
13443;SDS011;6794;59.218;18.218;2023-08-31T14:23:54;2.10;;;1.17;;
13443;SDS011;6794;59.218;18.218;2023-08-31T14:26:21;2.13;;;1.30;;
13443;SDS011;6794;59.218;18.218;2023-08-31T14:28:48;1.33;;;1.23;;
13443;SDS011;6794;59.218;18.218;2023-08-31T14:31:14;1.67;;;1.00;;
13443;SDS011;6794;59.218;18.218;2023-08-31T14:33:40;1.40;;;1.20;;
13443;SDS011;6794;59.218;18.218;2023-08-31T14:36:06;1.80;;;1.30;;
13443;SDS011;6794;59.218;18.218;2023-08-31T14:38:32;1.87;;;1.43;;
13443;SDS011;6794;59.218;18.218;2023-08-31T14:40:58;1.37;;;1.17;;
13443;SDS011;6794;59.218;18.218;2023-08-31T14:43:24;1.17;;;1.07;;
13443;SDS011;6794;59.218;18.218;2023-08-31T14:45:50;1.30;;;1.20;;
13443;SDS011;6794;59.218;18.218;2023-08-31T14:48:16;1.20;;;1.10;;
13443;SDS011;6794;59.218;18.218;2023-08-31T14:50:43;2.03;;;1.20;;
13443;SDS011;6794;59.218;18.218;2023-08-31T14:53:09;1.20;;;1.10;;
13443;SDS011;6794;59.218;18.218;2023-08-31T14:55:36;1.97;;;1.40;;
13443;SDS011;6794;59.218;18.218;2023-08-31T14:58:03;1.37;;;1.23;;
13443;SDS011;6794;59.218;18.218;2023-08-31T15:00:31;1.23;;;1.13;;
13443;SDS011;6794;59.218;18.218;2023-08-31T15:02:57;1.23;;;1.07;;
13443;SDS011;6794;59.218;18.218;2023-08-31T15:05:23;2.33;;;1.23;;
13443;SDS011;6794;59.218;18.218;2023-08-31T15:07:50;1.80;;;1.30;;